sensor_id;sensor_type;location;lat;lon;timestamp;pressure;altitude;pressure_sealevel;temperature;humidity
70971;BME280;58632;51.718;19.446;2023-03-22T00:00:35;99508.19;;;1.46;100.00
70971;BME280;58632;51.718;19.446;2023-03-22T00:03:16;99512.34;;;1.44;100.00
70971;BME280;58632;51.718;19.446;2023-03-22T00:05:42;99508.19;;;1.45;100.00
70971;BME280;58632;51.718;19.446;2023-03-22T00:08:08;99508.45;;;1.38;100.00
70971;BME280;58632;51.718;19.446;2023-03-22T00:10:34;99506.66;;;1.34;100.00
70971;BME280;58632;51.718;19.446;2023-03-22T00:13:00;99507.36;;;1.34;100.00
70971;BME280;58632;51.718;19.446;2023-03-22T00:15:26;99500.83;;;1.33;100.00
70971;BME280;58632;51.718;19.446;2023-03-22T00:17:54;99499.05;;;1.31;100.00
70971;BME280;58632;51.718;19.446;2023-03-22T00:20:19;99497.38;;;1.31;100.00
70971;BME280;58632;51.718;19.446;2023-03-22T00:22:48;99493.27;;;1.31;100.00
70971;BME280;58632;51.718;19.446;2023-03-22T00:25:13;99488.00;;;1.31;100.00
70971;BME280;58632;51.718;19.446;2023-03-22T00:27:39;99488.15;;;1.31;100.00
70971;BME280;58632;51.718;19.446;2023-03-22T00:30:05;99484.70;;;1.31;100.00
70971;BME280;58632;51.718;19.446;2023-03-22T00:32:34;99486.64;;;1.32;100.00
70971;BME280;58632;51.718;19.446;2023-03-22T00:35:00;99490.38;;;1.34;100.00
70971;BME280;58632;51.718;19.446;2023-03-22T00:37:26;99487.78;;;1.35;100.00
70971;BME280;58632;51.718;19.446;2023-03-22T00:39:53;99490.48;;;1.33;100.00
70971;BME280;58632;51.718;19.446;2023-03-22T00:42:19;99494.28;;;1.23;100.00
70971;BME280;58632;51.718;19.446;2023-03-22T00:44:45;99492.17;;;1.16;100.00
70971;BME280;58632;51.718;19.446;2023-03-22T00:47:11;99488.66;;;1.11;100.00
70971;BME280;58632;51.718;19.446;2023-03-22T00:49:36;99491.56;;;1.10;100.00
70971;BME280;58632;51.718;19.446;2023-03-22T00:52:02;99490.86;;;1.10;100.00
70971;BME280;58632;51.718;19.446;2023-03-22T00:54:27;99484.23;;;1.11;100.00
70971;BME280;58632;51.718;19.446;2023-03-22T00:56:53;99483.48;;;1.13;100.00
70971;BME280;58632;51.718;19.446;2023-03-22T00:59:19;99484.35;;;1.16;100.00
70971;BME280;58632;51.718;19.446;2023-03-22T01:01:45;99483.77;;;1.17;100.00
70971;BME280;58632;51.718;19.446;2023-03-22T01:04:10;99480.09;;;1.16;100.00
70971;BME280;58632;51.718;19.446;2023-03-22T01:06:42;99478.63;;;1.14;100.00
70971;BME280;58632;51.718;19.446;2023-03-22T01:09:07;99475.02;;;1.12;100.00
70971;BME280;58632;51.718;19.446;2023-03-22T01:11:39;99472.27;;;1.12;100.00
70971;BME280;58632;51.718;19.446;2023-03-22T01:14:04;99466.76;;;1.10;100.00
70971;BME280;58632;51.718;19.446;2023-03-22T01:16:30;99465.08;;;1.05;100.00
70971;BME280;58632;51.718;19.446;2023-03-22T01:18:55;99461.56;;;1.01;100.00
70971;BME280;58632;51.718;19.446;2023-03-22T01:21:21;99459.77;;;0.96;100.00
70971;BME280;58632;51.718;19.446;2023-03-22T01:23:47;99461.55;;;0.96;100.00
70971;BME280;58632;51.718;19.446;2023-03-22T01:26:12;99461.39;;;0.95;100.00
70971;BME280;58632;51.718;19.446;2023-03-22T01:28:38;99458.03;;;0.94;100.00
70971;BME280;58632;51.718;19.446;2023-03-22T01:31:04;99454.58;;;0.92;100.00
70971;BME280;58632;51.718;19.446;2023-03-22T01:33:30;99448.47;;;0.86;100.00
70971;BME280;58632;51.718;19.446;2023-03-22T01:35:56;99447.29;;;0.81;100.00
70971;BME280;58632;51.718;19.446;2023-03-22T01:38:21;99443.39;;;0.80;100.00
70971;BME280;58632;51.718;19.446;2023-03-22T01:40:47;99437.56;;;0.79;100.00
70971;BME280;58632;51.718;19.446;2023-03-22T01:43:13;99435.69;;;0.79;100.00
70971;BME280;58632;51.718;19.446;2023-03-22T01:45:41;99427.34;;;0.77;100.00
70971;BME280;58632;51.718;19.446;2023-03-22T01:48:14;99425.39;;;0.77;100.00
70971;BME280;58632;51.718;19.446;2023-03-22T01:50:44;99425.27;;;0.78;100.00
70971;BME280;58632;51.718;19.446;2023-03-22T01:53:11;99423.66;;;0.76;100.00
70971;BME280;58632;51.718;19.446;2023-03-22T01:55:37;99428.25;;;0.80;100.00
70971;BME280;58632;51.718;19.446;2023-03-22T01:58:03;99420.49;;;0.82;100.00
70971;BME280;58632;51.718;19.446;2023-03-22T02:00:29;99418.88;;;0.90;100.00
70971;BME280;58632;51.718;19.446;2023-03-22T02:02:55;99418.46;;;0.99;100.00
70971;BME280;58632;51.718;19.446;2023-03-22T02:05:21;99415.73;;;1.10;100.00
70971;BME280;58632;51.718;19.446;2023-03-22T02:07:47;99413.85;;;1.16;100.00
70971;BME280;58632;51.718;19.446;2023-03-22T02:10:14;99407.43;;;1.25;100.00
70971;BME280;58632;51.718;19.446;2023-03-22T02:12:48;99408.40;;;1.34;100.00
70971;BME280;58632;51.718;19.446;2023-03-22T02:15:21;99404.20;;;1.44;100.00
70971;BME280;58632;51.718;19.446;2023-03-22T02:28:23;99398.52;;;2.05;100.00
70971;BME280;58632;51.718;19.446;2023-03-22T02:46:29;99366.64;;;2.82;100.00
70971;BME280;58632;51.718;19.446;2023-03-22T02:51:51;99365.56;;;3.10;100.00
70971;BME280;58632;51.718;19.446;2023-03-22T02:54:19;99367.31;;;3.20;100.00
70971;BME280;58632;51.718;19.446;2023-03-22T02:56:46;99366.50;;;3.28;100.00
70971;BME280;58632;51.718;19.446;2023-03-22T02:59:13;99361.98;;;3.35;100.00
70971;BME280;58632;51.718;19.446;2023-03-22T03:01:45;99363.91;;;3.51;100.00
70971;BME280;58632;51.718;19.446;2023-03-22T03:04:13;99356.85;;;3.69;100.00
70971;BME280;58632;51.718;19.446;2023-03-22T03:06:41;99351.66;;;3.84;100.00
70971;BME280;58632;51.718;19.446;2023-03-22T03:09:11;99348.06;;;4.00;100.00
70971;BME280;58632;51.718;19.446;2023-03-22T03:11:37;99353.20;;;4.14;100.00
70971;BME280;58632;51.718;19.446;2023-03-22T03:14:03;99356.29;;;4.28;100.00
70971;BME280;58632;51.718;19.446;2023-03-22T03:16:29;99358.92;;;4.39;100.00
70971;BME280;58632;51.718;19.446;2023-03-22T03:21:41;99357.54;;;4.56;100.00
70971;BME280;58632;51.718;19.446;2023-03-22T03:24:16;99356.23;;;4.64;100.00
70971;BME280;58632;51.718;19.446;2023-03-22T03:29:24;99346.45;;;4.80;100.00
70971;BME280;58632;51.718;19.446;2023-03-22T03:31:56;99350.81;;;4.87;100.00
70971;BME280;58632;51.718;19.446;2023-03-22T03:34:25;99349.60;;;4.94;100.00
70971;BME280;58632;51.718;19.446;2023-03-22T03:36:54;99342.94;;;5.01;100.00
70971;BME280;58632;51.718;19.446;2023-03-22T03:39:23;99339.54;;;5.06;100.00
70971;BME280;58632;51.718;19.446;2023-03-22T03:41:49;99341.15;;;5.11;100.00
70971;BME280;58632;51.718;19.446;2023-03-22T03:44:15;99343.54;;;5.17;100.00
70971;BME280;58632;51.718;19.446;2023-03-22T03:46:41;99346.03;;;5.24;100.00
70971;BME280;58632;51.718;19.446;2023-03-22T03:49:08;99347.70;;;5.31;100.00
70971;BME280;58632;51.718;19.446;2023-03-22T03:51:52;99352.21;;;5.38;100.00
70971;BME280;58632;51.718;19.446;2023-03-22T03:54:18;99350.20;;;5.41;100.00
70971;BME280;58632;51.718;19.446;2023-03-22T03:56:44;99350.30;;;5.45;100.00
70971;BME280;58632;51.718;19.446;2023-03-22T03:59:12;99353.13;;;5.51;100.00
70971;BME280;58632;51.718;19.446;2023-03-22T04:01:40;99351.01;;;5.55;100.00
70971;BME280;58632;51.718;19.446;2023-03-22T04:04:06;99343.34;;;5.58;100.00
70971;BME280;58632;51.718;19.446;2023-03-22T04:06:32;99342.77;;;5.59;100.00
70971;BME280;58632;51.718;19.446;2023-03-22T04:08:58;99342.11;;;5.62;100.00
70971;BME280;58632;51.718;19.446;2023-03-22T04:11:26;99341.74;;;5.68;100.00
70971;BME280;58632;51.718;19.446;2023-03-22T04:13:51;99340.36;;;5.72;100.00
70971;BME280;58632;51.718;19.446;2023-03-22T04:16:17;99343.11;;;5.77;100.00
70971;BME280;58632;51.718;19.446;2023-03-22T04:18:42;99345.10;;;5.83;100.00
70971;BME280;58632;51.718;19.446;2023-03-22T04:21:08;99344.82;;;5.86;100.00
70971;BME280;58632;51.718;19.446;2023-03-22T04:23:36;99340.67;;;5.87;100.00
70971;BME280;58632;51.718;19.446;2023-03-22T04:26:01;99339.85;;;5.87;100.00
70971;BME280;58632;51.718;19.446;2023-03-22T04:28:27;99342.16;;;5.91;100.00
70971;BME280;58632;51.718;19.446;2023-03-22T04:30:53;99343.70;;;5.95;100.00
70971;BME280;58632;51.718;19.446;2023-03-22T04:33:21;99343.83;;;5.97;100.00
70971;BME280;58632;51.718;19.446;2023-03-22T04:35:47;99342.09;;;5.99;100.00
70971;BME280;58632;51.718;19.446;2023-03-22T04:38:13;99340.58;;;5.99;100.00
70971;BME280;58632;51.718;19.446;2023-03-22T04:40:39;99342.29;;;5.98;100.00
70971;BME280;58632;51.718;19.446;2023-03-22T04:43:11;99342.48;;;6.02;100.00
70971;BME280;58632;51.718;19.446;2023-03-22T04:45:37;99346.22;;;6.05;100.00
70971;BME280;58632;51.718;19.446;2023-03-22T04:48:03;99349.42;;;6.08;100.00
70971;BME280;58632;51.718;19.446;2023-03-22T04:50:28;99345.21;;;6.09;100.00
70971;BME280;58632;51.718;19.446;2023-03-22T04:52:54;99344.43;;;6.10;100.00
70971;BME280;58632;51.718;19.446;2023-03-22T04:55:19;99345.65;;;6.14;100.00
70971;BME280;58632;51.718;19.446;2023-03-22T04:57:45;99345.85;;;6.18;100.00
70971;BME280;58632;51.718;19.446;2023-03-22T05:00:11;99344.80;;;6.21;100.00
70971;BME280;58632;51.718;19.446;2023-03-22T05:02:36;99343.31;;;6.25;100.00
70971;BME280;58632;51.718;19.446;2023-03-22T05:05:05;99342.64;;;6.26;100.00
70971;BME280;58632;51.718;19.446;2023-03-22T05:07:30;99342.88;;;6.27;100.00
70971;BME280;58632;51.718;19.446;2023-03-22T05:09:56;99337.91;;;6.31;100.00
70971;BME280;58632;51.718;19.446;2023-03-22T05:12:21;99340.45;;;6.34;100.00
70971;BME280;58632;51.718;19.446;2023-03-22T05:14:47;99340.04;;;6.36;100.00
70971;BME280;58632;51.718;19.446;2023-03-22T05:17:12;99341.90;;;6.38;100.00
70971;BME280;58632;51.718;19.446;2023-03-22T05:19:38;99341.66;;;6.39;100.00
70971;BME280;58632;51.718;19.446;2023-03-22T05:22:03;99340.55;;;6.43;100.00
70971;BME280;58632;51.718;19.446;2023-03-22T05:24:29;99340.80;;;6.46;100.00
70971;BME280;58632;51.718;19.446;2023-03-22T05:26:55;99340.50;;;6.52;100.00
70971;BME280;58632;51.718;19.446;2023-03-22T05:29:20;99341.48;;;6.57;100.00
70971;BME280;58632;51.718;19.446;2023-03-22T05:31:46;99346.85;;;6.60;100.00
70971;BME280;58632;51.718;19.446;2023-03-22T05:34:12;99345.79;;;6.64;100.00
70971;BME280;58632;51.718;19.446;2023-03-22T05:36:38;99348.40;;;6.69;100.00
70971;BME280;58632;51.718;19.446;2023-03-22T05:39:03;99346.98;;;6.74;100.00
70971;BME280;58632;51.718;19.446;2023-03-22T05:41:29;99341.77;;;6.81;100.00
70971;BME280;58632;51.718;19.446;2023-03-22T05:43:56;99336.77;;;6.86;100.00
70971;BME280;58632;51.718;19.446;2023-03-22T05:46:21;99338.27;;;6.91;100.00
70971;BME280;58632;51.718;19.446;2023-03-22T05:48:46;99335.83;;;6.97;100.00
70971;BME280;58632;51.718;19.446;2023-03-22T05:51:12;99339.11;;;7.08;100.00
70971;BME280;58632;51.718;19.446;2023-03-22T05:53:41;99339.25;;;7.14;100.00
70971;BME280;58632;51.718;19.446;2023-03-22T05:56:07;99342.04;;;7.15;100.00
70971;BME280;58632;51.718;19.446;2023-03-22T05:58:34;99345.13;;;7.18;100.00
70971;BME280;58632;51.718;19.446;2023-03-22T06:01:03;99346.48;;;7.23;100.00
70971;BME280;58632;51.718;19.446;2023-03-22T06:03:30;99354.33;;;7.27;100.00
70971;BME280;58632;51.718;19.446;2023-03-22T06:05:55;99347.70;;;7.29;100.00
70971;BME280;58632;51.718;19.446;2023-03-22T06:08:21;99348.85;;;7.27;100.00
70971;BME280;58632;51.718;19.446;2023-03-22T06:10:48;99352.38;;;7.27;100.00
70971;BME280;58632;51.718;19.446;2023-03-22T06:13:14;99354.66;;;7.32;100.00
70971;BME280;58632;51.718;19.446;2023-03-22T06:15:39;99357.44;;;7.32;100.00
70971;BME280;58632;51.718;19.446;2023-03-22T06:18:05;99359.62;;;7.32;100.00
70971;BME280;58632;51.718;19.446;2023-03-22T06:20:31;99358.94;;;7.30;100.00
70971;BME280;58632;51.718;19.446;2023-03-22T06:22:56;99354.73;;;7.31;100.00
70971;BME280;58632;51.718;19.446;2023-03-22T06:25:22;99351.63;;;7.33;100.00
70971;BME280;58632;51.718;19.446;2023-03-22T06:27:48;99355.34;;;7.35;100.00
70971;BME280;58632;51.718;19.446;2023-03-22T06:30:13;99354.92;;;7.34;100.00
70971;BME280;58632;51.718;19.446;2023-03-22T06:32:39;99355.09;;;7.34;100.00
70971;BME280;58632;51.718;19.446;2023-03-22T06:35:05;99361.77;;;7.35;100.00
70971;BME280;58632;51.718;19.446;2023-03-22T06:37:30;99363.68;;;7.41;100.00
70971;BME280;58632;51.718;19.446;2023-03-22T06:39:56;99362.66;;;7.45;100.00
70971;BME280;58632;51.718;19.446;2023-03-22T06:42:22;99358.20;;;7.53;100.00
70971;BME280;58632;51.718;19.446;2023-03-22T06:44:47;99354.11;;;7.59;100.00
70971;BME280;58632;51.718;19.446;2023-03-22T06:47:13;99348.23;;;7.63;100.00
70971;BME280;58632;51.718;19.446;2023-03-22T06:49:39;99344.34;;;7.67;100.00
70971;BME280;58632;51.718;19.446;2023-03-22T06:52:04;99342.95;;;7.72;100.00
70971;BME280;58632;51.718;19.446;2023-03-22T06:54:30;99338.45;;;7.77;100.00
70971;BME280;58632;51.718;19.446;2023-03-22T06:56:56;99339.39;;;7.80;100.00
70971;BME280;58632;51.718;19.446;2023-03-22T06:59:21;99336.23;;;7.84;100.00
70971;BME280;58632;51.718;19.446;2023-03-22T07:01:47;99342.57;;;7.88;100.00
70971;BME280;58632;51.718;19.446;2023-03-22T07:04:12;99341.11;;;7.91;100.00
70971;BME280;58632;51.718;19.446;2023-03-22T07:06:38;99345.36;;;7.97;100.00
70971;BME280;58632;51.718;19.446;2023-03-22T07:09:04;99349.11;;;8.03;100.00
70971;BME280;58632;51.718;19.446;2023-03-22T07:11:29;99347.23;;;8.06;100.00
70971;BME280;58632;51.718;19.446;2023-03-22T07:13:55;99347.67;;;8.06;100.00
70971;BME280;58632;51.718;19.446;2023-03-22T07:16:21;99344.18;;;8.06;100.00
70971;BME280;58632;51.718;19.446;2023-03-22T07:18:46;99343.70;;;8.08;100.00
70971;BME280;58632;51.718;19.446;2023-03-22T07:21:12;99341.23;;;8.12;100.00
70971;BME280;58632;51.718;19.446;2023-03-22T07:23:38;99330.73;;;8.09;100.00
70971;BME280;58632;51.718;19.446;2023-03-22T07:26:03;99327.08;;;8.07;100.00
70971;BME280;58632;51.718;19.446;2023-03-22T07:28:29;99321.27;;;8.14;100.00
70971;BME280;58632;51.718;19.446;2023-03-22T07:31:01;99313.76;;;8.32;100.00
70971;BME280;58632;51.718;19.446;2023-03-22T07:33:28;99316.67;;;8.52;100.00
70971;BME280;58632;51.718;19.446;2023-03-22T07:35:53;99318.81;;;8.76;100.00
70971;BME280;58632;51.718;19.446;2023-03-22T07:38:19;99310.83;;;8.96;100.00
70971;BME280;58632;51.718;19.446;2023-03-22T07:40:45;99305.92;;;9.11;100.00
70971;BME280;58632;51.718;19.446;2023-03-22T07:43:10;99305.08;;;9.33;100.00
70971;BME280;58632;51.718;19.446;2023-03-22T07:45:37;99301.14;;;9.62;100.00
70971;BME280;58632;51.718;19.446;2023-03-22T07:48:03;99296.67;;;9.92;100.00
70971;BME280;58632;51.718;19.446;2023-03-22T07:50:29;99300.16;;;10.17;100.00
70971;BME280;58632;51.718;19.446;2023-03-22T07:52:54;99304.48;;;10.45;100.00
70971;BME280;58632;51.718;19.446;2023-03-22T07:55:20;99299.95;;;10.73;100.00
70971;BME280;58632;51.718;19.446;2023-03-22T07:57:45;99298.17;;;10.92;100.00
70971;BME280;58632;51.718;19.446;2023-03-22T08:00:11;99299.15;;;11.15;100.00
70971;BME280;58632;51.718;19.446;2023-03-22T08:02:37;99293.17;;;11.30;100.00
70971;BME280;58632;51.718;19.446;2023-03-22T08:05:04;99297.95;;;11.37;100.00
70971;BME280;58632;51.718;19.446;2023-03-22T08:07:30;99296.86;;;11.28;100.00
70971;BME280;58632;51.718;19.446;2023-03-22T08:09:55;99297.23;;;11.18;100.00
70971;BME280;58632;51.718;19.446;2023-03-22T08:12:21;99301.52;;;11.14;100.00
70971;BME280;58632;51.718;19.446;2023-03-22T08:14:47;99301.73;;;11.06;100.00
70971;BME280;58632;51.718;19.446;2023-03-22T08:17:15;99303.91;;;10.99;100.00
70971;BME280;58632;51.718;19.446;2023-03-22T08:19:41;99306.25;;;10.97;100.00
70971;BME280;58632;51.718;19.446;2023-03-22T08:22:06;99302.26;;;11.01;100.00
70971;BME280;58632;51.718;19.446;2023-03-22T08:24:32;99302.98;;;11.16;100.00
70971;BME280;58632;51.718;19.446;2023-03-22T08:26:58;99302.22;;;11.43;100.00
70971;BME280;58632;51.718;19.446;2023-03-22T08:29:24;99300.02;;;11.76;100.00
70971;BME280;58632;51.718;19.446;2023-03-22T08:31:49;99299.50;;;12.05;100.00
70971;BME280;58632;51.718;19.446;2023-03-22T08:34:16;99300.42;;;12.27;100.00
70971;BME280;58632;51.718;19.446;2023-03-22T08:36:41;99296.79;;;12.37;100.00
70971;BME280;58632;51.718;19.446;2023-03-22T08:39:06;99299.86;;;12.37;100.00
70971;BME280;58632;51.718;19.446;2023-03-22T08:41:33;99308.57;;;12.47;100.00
70971;BME280;58632;51.718;19.446;2023-03-22T08:43:58;99306.96;;;12.56;100.00
70971;BME280;58632;51.718;19.446;2023-03-22T08:46:24;99303.77;;;12.62;100.00
70971;BME280;58632;51.718;19.446;2023-03-22T08:48:50;99307.66;;;12.74;100.00
70971;BME280;58632;51.718;19.446;2023-03-22T08:51:17;99307.41;;;12.90;100.00
70971;BME280;58632;51.718;19.446;2023-03-22T08:53:42;99306.38;;;12.95;100.00
70971;BME280;58632;51.718;19.446;2023-03-22T08:56:08;99305.02;;;13.00;100.00
70971;BME280;58632;51.718;19.446;2023-03-22T08:58:33;99304.16;;;13.00;100.00
70971;BME280;58632;51.718;19.446;2023-03-22T09:01:00;99301.89;;;13.01;100.00
70971;BME280;58632;51.718;19.446;2023-03-22T09:03:26;99298.88;;;13.05;100.00
70971;BME280;58632;51.718;19.446;2023-03-22T09:05:51;99298.01;;;13.19;100.00
70971;BME280;58632;51.718;19.446;2023-03-22T09:08:19;99288.59;;;13.17;100.00
70971;BME280;58632;51.718;19.446;2023-03-22T09:10:48;99283.18;;;13.08;100.00
70971;BME280;58632;51.718;19.446;2023-03-22T09:13:16;99284.04;;;13.26;100.00
70971;BME280;58632;51.718;19.446;2023-03-22T09:15:44;99282.84;;;13.76;100.00
70971;BME280;58632;51.718;19.446;2023-03-22T09:18:10;99275.23;;;14.34;100.00
70971;BME280;58632;51.718;19.446;2023-03-22T09:20:36;99273.29;;;14.59;100.00
70971;BME280;58632;51.718;19.446;2023-03-22T09:23:02;99273.38;;;14.75;100.00
70971;BME280;58632;51.718;19.446;2023-03-22T09:25:27;99268.86;;;14.70;100.00
70971;BME280;58632;51.718;19.446;2023-03-22T09:27:53;99267.16;;;14.68;100.00
70971;BME280;58632;51.718;19.446;2023-03-22T09:30:18;99262.63;;;14.73;100.00
70971;BME280;58632;51.718;19.446;2023-03-22T09:32:44;99261.75;;;14.61;100.00
70971;BME280;58632;51.718;19.446;2023-03-22T09:35:10;99263.31;;;14.47;100.00
70971;BME280;58632;51.718;19.446;2023-03-22T09:37:35;99264.58;;;14.48;100.00
70971;BME280;58632;51.718;19.446;2023-03-22T09:40:01;99263.55;;;14.47;100.00
70971;BME280;58632;51.718;19.446;2023-03-22T09:42:37;99265.13;;;14.37;100.00
70971;BME280;58632;51.718;19.446;2023-03-22T09:45:05;99270.20;;;14.27;100.00
70971;BME280;58632;51.718;19.446;2023-03-22T09:47:45;99270.83;;;14.16;100.00
70971;BME280;58632;51.718;19.446;2023-03-22T09:50:12;99268.38;;;14.03;100.00
70971;BME280;58632;51.718;19.446;2023-03-22T09:52:39;99264.52;;;14.06;100.00
70971;BME280;58632;51.718;19.446;2023-03-22T09:55:08;99265.09;;;14.13;100.00
70971;BME280;58632;51.718;19.446;2023-03-22T09:57:41;99263.70;;;14.15;100.00
70971;BME280;58632;51.718;19.446;2023-03-22T10:05:17;99261.71;;;14.46;100.00
70971;BME280;58632;51.718;19.446;2023-03-22T10:10:14;99261.16;;;14.75;100.00
70971;BME280;58632;51.718;19.446;2023-03-22T10:15:28;99259.01;;;14.73;100.00
70971;BME280;58632;51.718;19.446;2023-03-22T10:17:56;99263.02;;;14.73;100.00
70971;BME280;58632;51.718;19.446;2023-03-22T10:20:46;99254.41;;;14.79;100.00
70971;BME280;58632;51.718;19.446;2023-03-22T10:23:11;99251.20;;;14.88;100.00
70971;BME280;58632;51.718;19.446;2023-03-22T10:25:39;99251.34;;;15.08;100.00
70971;BME280;58632;51.718;19.446;2023-03-22T10:28:19;99251.35;;;15.25;100.00
70971;BME280;58632;51.718;19.446;2023-03-22T10:30:46;99244.58;;;15.30;100.00
70971;BME280;58632;51.718;19.446;2023-03-22T10:33:27;99244.20;;;15.40;100.00
70971;BME280;58632;51.718;19.446;2023-03-22T10:35:55;99245.23;;;15.73;100.00
70971;BME280;58632;51.718;19.446;2023-03-22T10:38:22;99244.87;;;15.92;100.00
70971;BME280;58632;51.718;19.446;2023-03-22T10:40:49;99239.45;;;16.16;100.00
70971;BME280;58632;51.718;19.446;2023-03-22T10:43:22;99240.48;;;16.46;100.00
70971;BME280;58632;51.718;19.446;2023-03-22T10:45:51;99238.33;;;16.69;100.00
70971;BME280;58632;51.718;19.446;2023-03-22T10:50:49;99238.59;;;17.11;100.00
70971;BME280;58632;51.718;19.446;2023-03-22T10:55:50;99236.64;;;17.20;100.00
70971;BME280;58632;51.718;19.446;2023-03-22T10:58:17;99227.93;;;16.97;100.00
70971;BME280;58632;51.718;19.446;2023-03-22T11:00:50;99232.52;;;16.77;100.00
70971;BME280;58632;51.718;19.446;2023-03-22T11:03:27;99226.89;;;16.77;100.00
70971;BME280;58632;51.718;19.446;2023-03-22T11:08:27;99221.96;;;16.48;100.00
70971;BME280;58632;51.718;19.446;2023-03-22T11:10:52;99213.90;;;16.42;100.00
70971;BME280;58632;51.718;19.446;2023-03-22T11:13:23;99210.02;;;16.53;100.00
70971;BME280;58632;51.718;19.446;2023-03-22T11:15:51;99205.48;;;16.44;100.00
70971;BME280;58632;51.718;19.446;2023-03-22T11:18:18;99200.27;;;16.25;100.00
70971;BME280;58632;51.718;19.446;2023-03-22T11:20:57;99196.77;;;16.18;100.00
70971;BME280;58632;51.718;19.446;2023-03-22T11:23:24;99195.96;;;16.17;100.00
70971;BME280;58632;51.718;19.446;2023-03-22T11:25:49;99194.13;;;16.15;100.00
70971;BME280;58632;51.718;19.446;2023-03-22T11:28:17;99188.48;;;16.06;100.00
70971;BME280;58632;51.718;19.446;2023-03-22T11:33:28;99183.86;;;16.38;100.00
70971;BME280;58632;51.718;19.446;2023-03-22T11:35:55;99184.88;;;16.44;100.00
70971;BME280;58632;51.718;19.446;2023-03-22T11:38:23;99180.05;;;16.38;100.00
70971;BME280;58632;51.718;19.446;2023-03-22T11:40:52;99169.81;;;16.39;100.00
70971;BME280;58632;51.718;19.446;2023-03-22T11:43:19;99158.85;;;16.52;100.00
70971;BME280;58632;51.718;19.446;2023-03-22T11:45:47;99158.85;;;16.59;100.00
70971;BME280;58632;51.718;19.446;2023-03-22T11:48:17;99161.71;;;16.68;100.00
70971;BME280;58632;51.718;19.446;2023-03-22T11:50:43;99162.53;;;16.58;100.00
70971;BME280;58632;51.718;19.446;2023-03-22T11:53:20;99161.95;;;16.47;100.00
70971;BME280;58632;51.718;19.446;2023-03-22T11:55:47;99160.57;;;16.51;100.00
70971;BME280;58632;51.718;19.446;2023-03-22T11:58:28;99162.27;;;16.70;100.00
70971;BME280;58632;51.718;19.446;2023-03-22T12:00:55;99159.16;;;16.95;100.00
70971;BME280;58632;51.718;19.446;2023-03-22T12:03:25;99154.45;;;17.13;100.00
70971;BME280;58632;51.718;19.446;2023-03-22T12:05:51;99154.41;;;17.17;100.00
70971;BME280;58632;51.718;19.446;2023-03-22T12:08:24;99149.27;;;17.25;100.00
70971;BME280;58632;51.718;19.446;2023-03-22T12:10:56;99154.98;;;17.30;100.00
70971;BME280;58632;51.718;19.446;2023-03-22T12:15:53;99151.79;;;17.44;100.00
70971;BME280;58632;51.718;19.446;2023-03-22T12:18:30;99144.27;;;17.55;100.00
70971;BME280;58632;51.718;19.446;2023-03-22T12:20:58;99144.42;;;17.66;100.00
70971;BME280;58632;51.718;19.446;2023-03-22T12:23:28;99146.61;;;17.71;100.00
70971;BME280;58632;51.718;19.446;2023-03-22T12:25:56;99144.85;;;17.70;100.00
70971;BME280;58632;51.718;19.446;2023-03-22T12:28:27;99145.43;;;17.62;100.00
70971;BME280;58632;51.718;19.446;2023-03-22T12:30:56;99140.52;;;17.50;100.00
70971;BME280;58632;51.718;19.446;2023-03-22T12:33:42;99139.73;;;17.30;100.00
70971;BME280;58632;51.718;19.446;2023-03-22T12:36:10;99138.11;;;17.16;100.00
70971;BME280;58632;51.718;19.446;2023-03-22T12:38:40;99136.50;;;17.12;100.00
70971;BME280;58632;51.718;19.446;2023-03-22T12:41:11;99133.23;;;17.19;100.00
70971;BME280;58632;51.718;19.446;2023-03-22T12:43:52;99125.23;;;17.36;100.00
70971;BME280;58632;51.718;19.446;2023-03-22T12:46:34;99120.04;;;17.50;100.00
70971;BME280;58632;51.718;19.446;2023-03-22T12:49:05;99108.66;;;17.63;100.00
70971;BME280;58632;51.718;19.446;2023-03-22T12:51:37;99109.41;;;17.80;100.00
70971;BME280;58632;51.718;19.446;2023-03-22T12:54:04;99111.61;;;17.91;100.00
70971;BME280;58632;51.718;19.446;2023-03-22T12:56:37;99108.42;;;18.01;100.00
70971;BME280;58632;51.718;19.446;2023-03-22T12:59:04;99107.48;;;18.18;100.00
70971;BME280;58632;51.718;19.446;2023-03-22T13:01:34;99116.27;;;18.22;100.00
70971;BME280;58632;51.718;19.446;2023-03-22T13:04:25;99111.55;;;18.28;100.00
70971;BME280;58632;51.718;19.446;2023-03-22T13:09:18;99104.04;;;18.29;100.00
70971;BME280;58632;51.718;19.446;2023-03-22T13:11:47;99100.62;;;18.28;100.00
70971;BME280;58632;51.718;19.446;2023-03-22T13:16:58;99094.13;;;18.28;100.00
70971;BME280;58632;51.718;19.446;2023-03-22T13:19:28;99097.30;;;18.06;100.00
70971;BME280;58632;51.718;19.446;2023-03-22T13:25:04;99087.59;;;17.59;100.00
70971;BME280;58632;51.718;19.446;2023-03-22T13:32:41;99077.32;;;17.47;100.00
70971;BME280;58632;51.718;19.446;2023-03-22T13:35:18;99078.45;;;17.50;100.00
70971;BME280;58632;51.718;19.446;2023-03-22T13:37:46;99075.84;;;17.37;100.00
70971;BME280;58632;51.718;19.446;2023-03-22T13:40:18;99074.97;;;17.17;100.00
70971;BME280;58632;51.718;19.446;2023-03-22T13:42:46;99074.05;;;17.11;100.00
70971;BME280;58632;51.718;19.446;2023-03-22T13:45:29;99070.67;;;17.14;100.00
70971;BME280;58632;51.718;19.446;2023-03-22T13:48:02;99070.82;;;17.22;100.00
70971;BME280;58632;51.718;19.446;2023-03-22T13:50:28;99065.10;;;17.40;100.00
70971;BME280;58632;51.718;19.446;2023-03-22T13:52:58;99060.38;;;17.58;100.00
70971;BME280;58632;51.718;19.446;2023-03-22T13:58:00;99055.95;;;17.81;100.00
70971;BME280;58632;51.718;19.446;2023-03-22T14:03:05;99049.96;;;17.87;100.00